Time;durP1;ratioP1;P1;durP2;ratioP2;P2;SDS_P1;SDS_P2;PMS_P1;PMS_P2;Temp;Humidity;BMP_temperature;BMP_pressure;BME280_temperature;BME280_humidity;BME280_pressure;Samples;Min_cycle;Max_cycle;Signal;HPM_P1;HPM_P2
2022/07/09 00:01:47;;;;;;;3.47;1.90;;;14.40;99.90;;;;;;4971192;28;20027;-75
2022/07/09 00:04:13;;;;;;;3.53;2.17;;;14.30;99.90;;;;;;4963065;28;20669;-75
2022/07/09 00:06:39;;;;;;;3.67;1.83;;;14.20;99.90;;;;;;4971174;28;20030;-75
2022/07/09 00:09:05;;;;;;;2.50;1.90;;;14.20;99.90;;;;;;4971651;28;20475;-75
2022/07/09 00:11:30;;;;;;;5.00;1.88;;;14.20;99.90;;;;;;4949240;23;20108;-76
2022/07/09 00:13:56;;;;;;;3.88;2.75;;;14.20;99.90;;;;;;4913644;29;20032;-76
2022/07/09 00:16:22;;;;;;;3.45;2.22;;;14.30;99.90;;;;;;4918558;29;20060;-76
2022/07/09 00:18:48;;;;;;;4.03;2.58;;;14.30;99.90;;;;;;4918323;29;20043;-76
2022/07/09 00:21:13;;;;;;;5.45;2.15;;;14.30;99.90;;;;;;4918355;29;20123;-76
2022/07/09 00:23:39;;;;;;;4.40;2.47;;;14.20;99.90;;;;;;4911799;29;20024;-76
2022/07/09 00:26:05;;;;;;;2.70;1.92;;;14.20;99.90;;;;;;4918252;29;20051;-76
2022/07/09 00:28:30;;;;;;;3.83;2.47;;;14.10;99.90;;;;;;4918019;29;20059;-76
2022/07/09 00:30:56;;;;;;;4.70;2.10;;;14.00;99.90;;;;;;4918293;29;20031;-76
2022/07/09 00:33:22;;;;;;;2.15;1.88;;;13.90;99.90;;;;;;4917832;29;20039;-76
2022/07/09 00:35:48;;;;;;;3.05;2.22;;;13.80;99.90;;;;;;4918226;29;20071;-76
2022/07/09 00:38:13;;;;;;;3.58;1.80;;;13.80;99.90;;;;;;4918084;29;20046;-75
2022/07/09 00:40:39;;;;;;;5.18;2.40;;;13.70;99.90;;;;;;4921176;29;20095;-76
2022/07/09 00:43:18;;;;;;;3.70;2.05;;;13.60;99.90;;;;;;4918003;29;20020;-76
2022/07/09 00:45:45;;;;;;;5.43;3.20;;;13.60;99.90;;;;;;4918067;29;20035;-76
2022/07/09 00:48:11;;;;;;;4.72;2.65;;;13.50;99.90;;;;;;4917901;29;20027;-76
2022/07/09 00:50:38;;;;;;;5.47;2.25;;;13.50;99.90;;;;;;4918038;29;20092;-76
2022/07/09 00:53:05;;;;;;;2.15;1.92;;;13.40;99.90;;;;;;4917908;29;20016;-76
2022/07/09 00:55:31;;;;;;;5.13;2.58;;;13.40;99.90;;;;;;4917315;29;20107;-76
2022/07/09 00:57:57;;;;;;;3.60;2.53;;;13.40;99.90;;;;;;4917782;29;20160;-76
2022/07/09 01:00:23;;;;;;;2.58;2.03;;;13.30;99.90;;;;;;4917403;29;20485;-76
2022/07/09 01:02:49;;;;;;;3.50;2.53;;;13.30;99.90;;;;;;4917448;29;20419;-76
2022/07/09 01:05:15;;;;;;;2.95;2.03;;;13.20;99.90;;;;;;4916553;29;20489;-76
2022/07/09 01:07:41;;;;;;;3.35;1.92;;;13.30;99.90;;;;;;4917523;29;20056;-76
2022/07/09 01:10:07;;;;;;;2.63;1.95;;;13.20;99.90;;;;;;4936352;23;20066;-75
2022/07/09 01:12:33;;;;;;;5.20;2.10;;;13.20;99.90;;;;;;4953582;28;20027;-75
2022/07/09 01:14:58;;;;;;;3.13;2.00;;;13.20;99.90;;;;;;4954297;28;20035;-75
2022/07/09 01:17:24;;;;;;;4.00;1.92;;;13.10;99.90;;;;;;4954801;28;20034;-75
2022/07/09 01:19:50;;;;;;;2.80;2.00;;;13.20;99.90;;;;;;4954196;28;20035;-75
2022/07/09 01:22:16;;;;;;;2.58;1.92;;;13.10;99.90;;;;;;4954027;29;20110;-75
2022/07/09 01:24:41;;;;;;;4.07;2.17;;;13.10;99.90;;;;;;4954473;28;20054;-75
2022/07/09 01:27:07;;;;;;;3.13;2.42;;;13.00;99.90;;;;;;4952986;28;20025;-75
2022/07/09 01:29:33;;;;;;;2.03;1.75;;;13.10;99.90;;;;;;4953902;28;20484;-75
2022/07/09 01:31:59;;;;;;;2.50;2.15;;;13.10;99.90;;;;;;4952999;28;20015;-75
2022/07/09 01:34:25;;;;;;;4.80;2.67;;;13.10;99.90;;;;;;4952734;28;20027;-75
2022/07/09 01:36:51;;;;;;;3.10;2.40;;;13.10;99.90;;;;;;4954088;28;20102;-75
2022/07/09 01:39:16;;;;;;;3.80;2.35;;;13.20;99.90;;;;;;4954065;28;20433;-75
2022/07/09 01:41:42;;;;;;;3.63;2.30;;;13.10;99.90;;;;;;4952266;28;20053;-75
2022/07/09 01:44:08;;;;;;;4.00;2.40;;;13.10;99.90;;;;;;4953481;29;20019;-75
2022/07/09 01:46:35;;;;;;;2.65;1.90;;;13.10;99.90;;;;;;4954428;28;20062;-75
2022/07/09 01:49:01;;;;;;;3.67;2.58;;;13.00;99.90;;;;;;4954089;28;20023;-75
2022/07/09 01:51:26;;;;;;;2.67;2.22;;;13.10;99.90;;;;;;4953600;28;20024;-75
2022/07/09 01:53:52;;;;;;;4.15;2.70;;;13.10;99.90;;;;;;4953652;28;20027;-75
2022/07/09 01:56:18;;;;;;;3.67;2.90;;;13.20;99.90;;;;;;4940479;28;20054;-75
2022/07/09 01:58:44;;;;;;;4.03;2.28;;;13.20;99.90;;;;;;4953750;28;20027;-75
2022/07/09 02:01:10;;;;;;;4.25;2.40;;;13.20;99.90;;;;;;4953514;28;20081;-75
2022/07/09 02:03:35;;;;;;;4.15;2.55;;;13.10;99.90;;;;;;4953987;28;20111;-75
2022/07/09 02:06:01;;;;;;;3.13;2.42;;;13.00;99.90;;;;;;4953797;28;20110;-75
2022/07/09 02:08:27;;;;;;;4.47;2.80;;;13.10;99.90;;;;;;4953301;28;20023;-75
2022/07/09 02:10:54;;;;;;;4.22;3.13;;;13.10;99.90;;;;;;4972502;23;20043;-76
2022/07/09 02:13:20;;;;;;;7.65;2.60;;;13.20;99.90;;;;;;4953343;28;20081;-75
2022/07/09 02:15:46;;;;;;;3.88;2.45;;;13.20;99.90;;;;;;4953182;28;20027;-76
2022/07/09 02:18:12;;;;;;;3.47;2.53;;;13.20;99.90;;;;;;4953488;28;20090;-76
2022/07/09 02:20:38;;;;;;;4.00;2.75;;;13.10;99.90;;;;;;4953037;28;20042;-76
2022/07/09 02:23:04;;;;;;;3.35;2.70;;;13.10;99.90;;;;;;4953393;28;20027;-76
2022/07/09 02:25:29;;;;;;;4.90;2.70;;;13.10;99.90;;;;;;4953304;28;20034;-75
2022/07/09 02:27:55;;;;;;;2.92;2.33;;;13.10;99.90;;;;;;4953153;28;20015;-76
2022/07/09 02:30:21;;;;;;;3.88;2.40;;;13.20;99.90;;;;;;4952972;28;20388;-75
2022/07/09 02:32:47;;;;;;;3.50;2.67;;;13.30;99.90;;;;;;4953463;28;20046;-76
2022/07/09 02:35:12;;;;;;;7.50;2.83;;;13.30;99.90;;;;;;4953039;28;20050;-76
2022/07/09 02:37:38;;;;;;;3.28;2.17;;;13.40;99.90;;;;;;4952918;28;20103;-76
2022/07/09 02:40:05;;;;;;;4.80;2.60;;;13.50;99.90;;;;;;4948743;28;20079;-76
2022/07/09 02:42:31;;;;;;;3.78;2.30;;;13.60;99.90;;;;;;4952326;28;20070;-76
2022/07/09 02:44:56;;;;;;;3.63;2.25;;;13.80;99.90;;;;;;4951368;28;20051;-75
2022/07/09 02:47:22;;;;;;;4.68;2.10;;;13.90;99.90;;;;;;4953026;28;20031;-76
2022/07/09 02:49:48;;;;;;;3.35;2.20;;;14.00;99.90;;;;;;4952567;28;20090;-76
2022/07/09 02:52:14;;;;;;;1.80;1.65;;;14.20;99.90;;;;;;4952648;28;20426;-76
2022/07/09 02:54:39;;;;;;;4.72;2.03;;;14.30;99.90;;;;;;4953036;28;20063;-77
2022/07/09 02:57:05;;;;;;;2.17;1.70;;;14.40;99.90;;;;;;4952788;28;20099;-73
2022/07/09 02:59:31;;;;;;;2.80;1.85;;;14.40;99.90;;;;;;4952325;28;20042;-76
2022/07/09 03:01:57;;;;;;;2.58;2.03;;;14.50;99.90;;;;;;4953129;28;20023;-76
2022/07/09 03:04:23;;;;;;;2.38;2.10;;;14.60;99.90;;;;;;4952668;28;20023;-75
2022/07/09 03:06:48;;;;;;;3.88;2.03;;;14.60;99.90;;;;;;4952334;28;20476;-73
2022/07/09 03:09:14;;;;;;;2.70;2.05;;;14.70;99.90;;;;;;4952802;28;20031;-76
2022/07/09 03:11:40;;;;;;;3.92;1.90;;;14.70;99.90;;;;;;4954735;23;20039;-75
2022/07/09 03:14:06;;;;;;;2.40;1.85;;;14.70;99.90;;;;;;4934546;28;20032;-75
2022/07/09 03:16:32;;;;;;;2.72;1.70;;;14.60;99.90;;;;;;4934441;29;20032;-75
2022/07/09 03:18:57;;;;;;;3.42;2.38;;;14.70;99.90;;;;;;4934324;28;20028;-75
2022/07/09 03:21:23;;;;;;;2.58;1.95;;;14.70;99.90;;;;;;4933979;29;20039;-75
2022/07/09 03:23:49;;;;;;;3.63;2.22;;;14.60;99.90;;;;;;4934345;28;20031;-75
2022/07/09 03:26:14;;;;;;;3.45;2.22;;;14.60;99.90;;;;;;4933811;29;20032;-75
2022/07/09 03:28:40;;;;;;;2.67;1.80;;;14.50;99.90;;;;;;4934445;29;20102;-75
2022/07/09 03:31:06;;;;;;;2.17;1.63;;;14.50;99.90;;;;;;4934391;29;20107;-75
2022/07/09 03:33:32;;;;;;;3.38;2.22;;;14.40;99.90;;;;;;4934202;29;20055;-75
2022/07/09 03:35:58;;;;;;;3.05;1.80;;;14.40;99.90;;;;;;4934089;29;20036;-75
2022/07/09 03:38:24;;;;;;;1.95;1.70;;;14.40;99.90;;;;;;4934530;29;20114;-75
2022/07/09 03:40:51;;;;;;;2.78;2.00;;;14.30;99.90;;;;;;4935631;28;20039;-75
2022/07/09 03:43:17;;;;;;;1.67;1.52;;;14.30;99.90;;;;;;4934263;28;20016;-75
2022/07/09 03:45:42;;;;;;;2.42;1.60;;;14.20;99.90;;;;;;4933896;29;20412;-75
2022/07/09 03:48:09;;;;;;;2.67;1.95;;;14.20;99.90;;;;;;4934167;29;20023;-75
2022/07/09 03:50:35;;;;;;;2.13;1.88;;;14.10;99.90;;;;;;4936173;29;20023;-75
2022/07/09 03:53:01;;;;;;;3.40;2.08;;;14.20;99.90;;;;;;4937900;29;20019;-75
2022/07/09 03:55:26;;;;;;;3.55;1.60;;;14.30;99.90;;;;;;4937311;28;20045;-75
2022/07/09 03:57:52;;;;;;;4.70;1.70;;;14.30;99.90;;;;;;4937941;29;20051;-75
2022/07/09 04:00:18;;;;;;;1.92;1.55;;;14.40;99.90;;;;;;4937825;29;20039;-75
2022/07/09 04:02:44;;;;;;;2.05;1.60;;;14.40;99.90;;;;;;4937811;29;20027;-75
2022/07/09 04:05:10;;;;;;;3.13;1.75;;;14.50;99.90;;;;;;4937705;29;20030;-75
2022/07/09 04:07:36;;;;;;;2.13;1.70;;;14.50;99.90;;;;;;4937716;28;20018;-75
2022/07/09 04:10:02;;;;;;;2.20;1.60;;;14.50;99.90;;;;;;4959484;23;20022;-75
2022/07/09 04:12:28;;;;;;;1.67;1.58;;;14.50;99.90;;;;;;4967531;28;20038;-77
2022/07/09 04:14:54;;;;;;;1.30;1.20;;;14.50;99.90;;;;;;4973367;28;20023;-77
2022/07/09 04:17:19;;;;;;;1.65;1.40;;;14.50;99.90;;;;;;4974920;28;20480;-76
2022/07/09 04:19:45;;;;;;;1.65;1.55;;;14.60;99.90;;;;;;4974444;28;20443;-77
2022/07/09 04:22:11;;;;;;;1.83;1.17;;;14.70;99.90;;;;;;4974520;28;20419;-76
2022/07/09 04:24:37;;;;;;;2.50;1.58;;;14.80;99.90;;;;;;4974864;28;20423;-77
2022/07/09 04:27:03;;;;;;;1.40;1.00;;;14.90;99.90;;;;;;4973869;28;20066;-77
2022/07/09 04:29:28;;;;;;;1.60;1.10;;;15.10;99.90;;;;;;4974074;28;20038;-76
2022/07/09 04:31:54;;;;;;;1.75;1.20;;;15.20;99.90;;;;;;4974683;28;20015;-77
2022/07/09 04:34:20;;;;;;;1.65;1.15;;;15.30;99.90;;;;;;4974242;28;20388;-77
2022/07/09 04:36:46;;;;;;;3.85;1.23;;;15.40;99.90;;;;;;4974245;28;20034;-77
2022/07/09 04:39:12;;;;;;;1.27;1.00;;;15.40;99.90;;;;;;4974335;28;20069;-77
2022/07/09 04:41:37;;;;;;;1.15;0.98;;;15.40;99.90;;;;;;4972389;28;20018;-76
2022/07/09 04:44:03;;;;;;;1.13;1.02;;;15.50;99.90;;;;;;4973555;28;20023;-76
2022/07/09 04:46:31;;;;;;;1.88;0.95;;;15.50;99.90;;;;;;4974111;28;20468;-77
2022/07/09 04:48:57;;;;;;;2.25;0.88;;;15.50;99.90;;;;;;4974364;28;20034;-77
2022/07/09 04:51:22;;;;;;;1.42;1.27;;;15.50;99.90;;;;;;4973811;28;20030;-77
2022/07/09 04:53:48;;;;;;;1.60;1.02;;;15.60;99.90;;;;;;4973518;28;20025;-77
2022/07/09 04:56:14;;;;;;;2.13;1.00;;;15.60;99.90;;;;;;4974041;28;20015;-76
2022/07/09 04:58:51;;;;;;;1.70;1.20;;;15.60;99.90;;;;;;4973808;28;20388;-77
2022/07/09 05:01:21;;;;;;;2.55;1.10;;;15.70;99.90;;;;;;4972364;28;20055;-77
2022/07/09 05:03:47;;;;;;;1.40;1.10;;;15.70;99.90;;;;;;4973813;28;20023;-76
2022/07/09 05:06:17;;;;;;;1.25;1.08;;;15.70;99.90;;;;;;4973427;28;20019;-77
2022/07/09 05:08:43;;;;;;;0.98;0.88;;;15.70;99.90;;;;;;4973229;28;20082;-77
2022/07/09 05:11:12;;;;;;;1.80;1.15;;;15.80;99.90;;;;;;4979642;23;20133;-74
2022/07/09 05:13:40;;;;;;;1.17;0.88;;;15.80;99.90;;;;;;4973810;28;20030;-74
2022/07/09 05:16:06;;;;;;;1.42;1.00;;;15.80;99.90;;;;;;4973205;28;20677;-74
2022/07/09 05:18:32;;;;;;;1.15;1.00;;;15.90;99.90;;;;;;4973386;28;20029;-73
2022/07/09 05:20:58;;;;;;;1.25;1.00;;;15.90;99.90;;;;;;4973877;28;20109;-73
2022/07/09 05:23:24;;;;;;;1.58;1.15;;;16.00;99.90;;;;;;4970644;28;20033;-74
2022/07/09 05:25:50;;;;;;;1.80;1.25;;;16.00;99.90;;;;;;4972153;28;20262;-74
2022/07/09 05:28:15;;;;;;;3.40;1.27;;;16.00;99.90;;;;;;4973484;28;20229;-73
2022/07/09 05:30:41;;;;;;;1.20;1.02;;;16.10;99.90;;;;;;4973654;28;20054;-74
2022/07/09 05:33:07;;;;;;;1.33;1.05;;;16.10;99.90;;;;;;4973352;28;20445;-73
2022/07/09 05:35:33;;;;;;;1.30;1.15;;;16.10;99.90;;;;;;4973035;28;20479;-74
2022/07/09 05:37:59;;;;;;;2.20;0.90;;;16.10;99.90;;;;;;4973211;28;20023;-74
2022/07/09 05:40:25;;;;;;;2.00;1.15;;;16.30;99.90;;;;;;4968873;28;20082;-74
2022/07/09 05:42:51;;;;;;;3.42;1.25;;;16.30;99.90;;;;;;4972847;28;20101;-74
2022/07/09 05:45:17;;;;;;;1.85;1.15;;;16.40;99.90;;;;;;4973417;28;20412;-74
2022/07/09 05:47:43;;;;;;;1.98;0.90;;;16.40;99.90;;;;;;4972653;28;20037;-73
2022/07/09 05:50:09;;;;;;;1.23;1.02;;;16.50;99.90;;;;;;4973076;28;20397;-74
2022/07/09 05:52:34;;;;;;;2.42;1.20;;;16.50;99.90;;;;;;4971997;28;20019;-74
2022/07/09 05:55:00;;;;;;;1.60;1.00;;;16.50;99.90;;;;;;4972948;28;20057;-73
2022/07/09 05:57:26;;;;;;;0.93;0.82;;;16.60;99.90;;;;;;4972768;28;20054;-74
2022/07/09 05:59:52;;;;;;;2.00;1.20;;;16.60;99.90;;;;;;4973060;28;20027;-74
2022/07/09 06:02:19;;;;;;;1.92;1.08;;;16.60;99.90;;;;;;4972738;28;20551;-74
2022/07/09 06:04:44;;;;;;;1.70;0.98;;;16.70;99.90;;;;;;4972829;28;20030;-73
2022/07/09 06:07:10;;;;;;;1.40;1.25;;;16.70;99.90;;;;;;4973042;28;20031;-73
2022/07/09 06:09:36;;;;;;;0.93;0.90;;;16.80;99.90;;;;;;4972719;28;20101;-73
2022/07/09 06:12:03;;;;;;;1.17;1.05;;;16.90;99.90;;;;;;4956837;23;20055;-78
2022/07/09 06:14:28;;;;;;;1.80;1.40;;;16.90;99.90;;;;;;4934974;28;20063;-78
2022/07/09 06:16:55;;;;;;;3.35;1.45;;;16.90;99.90;;;;;;4935163;29;20054;-78
2022/07/09 06:19:21;;;;;;;1.55;1.13;;;17.20;99.90;;;;;;4935024;29;20573;-78
2022/07/09 06:21:47;;;;;;;1.77;1.52;;;17.20;99.90;;;;;;4934112;29;20499;-78
2022/07/09 06:24:12;;;;;;;1.20;1.10;;;17.40;99.90;;;;;;4933823;29;20019;-78
2022/07/09 06:26:38;;;;;;;2.47;1.35;;;17.60;99.90;;;;;;4932094;29;20058;-78
2022/07/09 06:29:04;;;;;;;3.95;1.20;;;17.90;99.90;;;;;;4933931;29;20107;-79
2022/07/09 06:31:30;;;;;;;1.30;0.82;;;18.40;99.90;;;;;;4933682;29;20469;-78
2022/07/09 06:33:58;;;;;;;2.55;0.88;;;18.90;99.90;;;;;;4933827;29;20047;-78
2022/07/09 06:36:23;;;;;;;0.98;0.93;;;19.30;99.90;;;;;;4932880;29;20392;-78
2022/07/09 06:41:34;;;;;;;2.05;1.08;;;19.90;99.90;;;;;;4927850;29;20461;-78
2022/07/09 06:43:59;;;;;;;1.67;1.05;;;20.30;99.90;;;;;;4933158;29;20481;-78
2022/07/09 06:46:26;;;;;;;3.53;0.98;;;20.30;99.90;;;;;;4933291;29;20087;-79
2022/07/09 06:48:52;;;;;;;1.42;0.82;;;20.30;99.90;;;;;;4919951;29;20026;-79
2022/07/09 06:51:18;;;;;;;2.13;0.98;;;20.10;99.90;;;;;;4933342;29;20449;-79
2022/07/09 06:53:43;;;;;;;1.60;1.00;;;19.80;99.90;;;;;;4933146;29;20035;-78
2022/07/09 06:56:09;;;;;;;1.55;1.30;;;19.70;99.90;;;;;;4933400;29;20476;-79
2022/07/09 06:58:35;;;;;;;1.20;1.10;;;19.50;99.90;;;;;;4933090;29;21577;-78
2022/07/09 07:01:00;;;;;;;2.30;1.00;;;19.40;99.90;;;;;;4933029;29;20031;-78
2022/07/09 07:03:26;;;;;;;1.75;0.98;;;19.40;99.90;;;;;;4933368;29;20039;-78
2022/07/09 07:05:52;;;;;;;1.20;0.73;;;19.40;99.90;;;;;;4933016;29;20382;-79
2022/07/09 07:08:18;;;;;;;0.85;0.85;;;19.30;99.90;;;;;;4932576;29;20015;-78
2022/07/09 07:10:44;;;;;;;1.08;0.90;;;19.30;99.90;;;;;;4959095;23;20051;-76
2022/07/09 08:01:45;;;;;;;0.60;0.60;;;20.70;99.90;;;;;;5088471;28;20398;-78
2022/07/09 08:04:11;;;;;;;0.63;0.60;;;20.90;99.90;;;;;;5087368;28;20024;-78
2022/07/09 08:06:37;;;;;;;1.25;0.52;;;21.10;99.90;;;;;;5069038;28;20473;-77
2022/07/09 08:09:03;;;;;;;1.25;0.47;;;21.20;99.90;;;;;;5087713;28;20020;-75
2022/07/09 08:11:29;;;;;;;2.35;0.98;;;21.50;99.90;;;;;;5099471;22;20128;-76
2022/07/09 08:13:55;;;;;;;1.23;0.57;;;21.80;99.90;;;;;;5070159;28;20100;-76
2022/07/09 08:16:20;;;;;;;1.08;0.68;;;21.80;99.90;;;;;;5069672;28;20028;-75
2022/07/09 08:18:46;;;;;;;0.90;0.60;;;21.70;99.90;;;;;;5070037;28;20028;-74
2022/07/09 08:21:13;;;;;;;0.50;0.50;;;21.70;99.90;;;;;;5068488;28;20060;-76
2022/07/09 08:23:54;;;;;;;0.65;0.60;;;21.80;99.90;;;;;;5067176;28;20501;-76
2022/07/09 08:26:27;;;;;;;0.60;0.60;;;21.80;99.90;;;;;;5067936;28;20055;-75
2022/07/09 08:28:53;;;;;;;1.70;0.60;;;22.20;99.90;;;;;;5061348;28;20039;-76
2022/07/09 08:31:20;;;;;;;0.60;0.40;;;22.50;99.90;;;;;;5049994;28;20029;-76
2022/07/09 08:33:46;;;;;;;0.40;0.40;;;23.00;99.90;;;;;;5049893;28;20025;-75
2022/07/09 08:36:13;;;;;;;0.52;0.47;;;23.30;98.40;;;;;;5067865;28;20495;-76
2022/07/09 08:38:38;;;;;;;1.02;0.60;;;23.40;93.50;;;;;;5067630;28;20020;-76
2022/07/09 08:41:08;;;;;;;0.85;0.40;;;23.50;92.20;;;;;;5066945;28;20033;-76
2022/07/09 08:43:38;;;;;;;0.55;0.52;;;23.50;92.50;;;;;;5067773;28;20052;-82
2022/07/09 08:46:05;;;;;;;1.88;0.68;;;23.60;89.20;;;;;;5067042;28;20903;-76
2022/07/09 08:48:35;;;;;;;0.55;0.50;;;23.90;88.00;;;;;;5067845;28;20036;-77
2022/07/09 08:51:02;;;;;;;0.50;0.50;;;24.10;81.40;;;;;;5067646;28;20055;-77
2022/07/09 08:53:29;;;;;;;0.65;0.50;;;24.10;81.50;;;;;;5050012;28;20053;-76
2022/07/09 08:55:57;;;;;;;0.40;0.40;;;24.10;79.10;;;;;;5067597;28;20457;-77
2022/07/09 08:58:23;;;;;;;0.77;0.50;;;24.10;87.60;;;;;;5067468;28;20074;-77
2022/07/09 09:00:50;;;;;;;0.47;0.47;;;24.40;82.70;;;;;;5067171;28;20040;-77
2022/07/09 09:03:17;;;;;;;2.25;0.50;;;24.60;77.40;;;;;;5067867;28;20020;-76
2022/07/09 09:05:43;;;;;;;0.40;0.30;;;24.70;81.90;;;;;;5067384;28;20025;-76
2022/07/09 09:08:22;;;;;;;0.75;0.38;;;25.00;77.90;;;;;;5067402;28;20017;-76
2022/07/09 09:10:48;;;;;;;0.90;0.50;;;25.00;76.40;;;;;;5079667;22;20139;-76
2022/07/09 09:13:16;;;;;;;0.52;0.40;;;25.20;73.50;;;;;;5051855;28;20108;-76
2022/07/09 09:15:43;;;;;;;0.50;0.43;;;25.00;70.00;;;;;;5052979;28;20641;-76
2022/07/09 09:18:09;;;;;;;0.65;0.50;;;25.10;72.10;;;;;;5053844;28;20553;-76
2022/07/09 09:20:35;;;;;;;0.47;0.25;;;24.90;69.80;;;;;;5053138;28;20040;-75
2022/07/09 09:23:02;;;;;;;1.23;0.63;;;24.90;74.10;;;;;;5034816;28;20028;-75
2022/07/09 09:25:28;;;;;;;0.30;0.30;;;25.40;72.60;;;;;;5052702;28;20017;-75
2022/07/09 09:27:59;;;;;;;0.32;0.32;;;25.50;69.50;;;;;;5038748;28;20524;-75
2022/07/09 09:30:26;;;;;;;0.70;0.40;;;25.50;68.70;;;;;;5052064;28;20112;-75
2022/07/09 09:32:59;;;;;;;0.47;0.30;;;25.30;69.40;;;;;;5052525;28;20075;-75
2022/07/09 09:35:35;;;;;;;0.38;0.38;;;25.20;69.70;;;;;;5034764;28;20035;-75
2022/07/09 09:38:01;;;;;;;0.50;0.45;;;24.50;68.10;;;;;;5041105;28;20017;-75
2022/07/09 09:40:27;;;;;;;0.47;0.35;;;24.00;71.30;;;;;;5050869;28;20021;-76
2022/07/09 09:42:53;;;;;;;0.40;0.40;;;24.30;76.60;;;;;;5052457;28;20044;-75
2022/07/09 09:45:19;;;;;;;0.30;0.30;;;24.40;74.20;;;;;;5052767;28;20381;-75
2022/07/09 09:47:49;;;;;;;0.40;0.20;;;24.80;73.80;;;;;;5052396;28;20373;-75
2022/07/09 09:50:19;;;;;;;0.65;0.30;;;25.50;71.00;;;;;;5034218;28;20025;-74
2022/07/09 09:52:50;;;;;;;0.47;0.30;;;25.90;68.50;;;;;;5052071;28;20055;-74
2022/07/09 09:55:18;;;;;;;0.90;0.35;;;26.10;66.90;;;;;;5052342;28;20021;-74
2022/07/09 09:57:44;;;;;;;0.40;0.40;;;26.00;64.30;;;;;;5052085;28;20021;-74
2022/07/09 10:00:14;;;;;;;0.30;0.30;;;25.50;65.30;;;;;;5048718;28;20026;-75
2022/07/09 10:02:43;;;;;;;0.52;0.20;;;25.40;67.50;;;;;;5046707;28;20021;-74
2022/07/09 10:05:09;;;;;;;0.55;0.50;;;25.50;68.00;;;;;;5032030;28;20013;-74
2022/07/09 10:07:35;;;;;;;2.15;0.30;;;25.50;65.90;;;;;;5051032;28;20025;-74
2022/07/09 10:12:37;;;;;;;0.30;0.30;;;25.60;65.00;;;;;;5010078;28;20093;-75
2022/07/09 10:15:20;;;;;;;0.47;0.47;;;25.70;65.20;;;;;;5012495;28;20018;-75
2022/07/09 10:17:46;;;;;;;1.27;0.40;;;25.60;64.00;;;;;;5012701;28;20104;-76
2022/07/09 10:20:12;;;;;;;1.45;0.43;;;25.60;65.40;;;;;;5010829;28;20435;-75
2022/07/09 10:22:40;;;;;;;0.88;0.30;;;25.40;70.00;;;;;;4993613;28;20443;-75
2022/07/09 10:25:10;;;;;;;0.35;0.35;;;25.40;63.30;;;;;;4976276;28;20014;-75
2022/07/09 10:27:46;;;;;;;0.90;0.52;;;25.80;67.70;;;;;;5003127;28;20491;-75
2022/07/09 10:30:30;;;;;;;0.75;0.40;;;26.40;66.90;;;;;;5006763;28;20038;-75
2022/07/09 10:33:07;;;;;;;1.42;0.60;;;26.70;63.60;;;;;;5000943;28;20507;-75
2022/07/09 10:35:52;;;;;;;0.40;0.40;;;26.60;64.40;;;;;;5004303;28;20500;-76
2022/07/09 10:38:20;;;;;;;0.40;0.40;;;25.90;65.40;;;;;;5006270;28;20034;-75
2022/07/09 10:40:57;;;;;;;0.50;0.50;;;25.80;66.10;;;;;;5004417;28;20026;-75
2022/07/09 10:43:57;;;;;;;0.40;0.38;;;25.90;63.30;;;;;;5004898;28;20018;-75
2022/07/09 10:46:24;;;;;;;0.60;0.40;;;25.90;66.50;;;;;;5006490;28;20045;-74
2022/07/09 10:48:50;;;;;;;1.90;0.68;;;25.60;63.70;;;;;;5005645;28;20458;-75
2022/07/09 10:51:18;;;;;;;1.00;0.50;;;25.90;64.50;;;;;;5004392;28;20035;-75
2022/07/09 10:53:44;;;;;;;0.63;0.63;;;26.20;66.00;;;;;;5007816;28;20486;-75
2022/07/09 10:56:09;;;;;;;0.70;0.70;;;27.00;63.20;;;;;;5008187;28;20030;-74
2022/07/09 10:58:35;;;;;;;0.65;0.60;;;27.00;61.00;;;;;;5001900;28;20022;-75
2022/07/09 11:01:04;;;;;;;1.55;0.60;;;27.40;60.90;;;;;;5009646;28;20026;-75
2022/07/09 11:03:31;;;;;;;1.10;0.95;;;27.50;61.90;;;;;;5006200;28;20474;-75
2022/07/09 11:05:57;;;;;;;0.43;0.43;;;27.10;60.20;;;;;;5002828;28;20060;-76
2022/07/09 11:08:24;;;;;;;0.60;0.60;;;27.00;60.30;;;;;;4989088;28;20029;-76
2022/07/09 11:10:49;;;;;;;0.80;0.60;;;27.20;63.30;;;;;;5008525;28;20042;-76
2022/07/09 11:13:15;;;;;;;1.20;0.60;;;27.50;60.70;;;;;;4993563;28;20022;-76
2022/07/09 11:15:41;;;;;;;0.55;0.52;;;28.20;58.70;;;;;;4993267;28;20033;-76
2022/07/09 11:18:13;;;;;;;0.55;0.55;;;29.20;56.60;;;;;;5003137;28;20072;-76
2022/07/09 11:20:46;;;;;;;0.73;0.52;;;31.30;53.40;;;;;;5004205;28;20026;-76
2022/07/09 11:23:14;;;;;;;0.98;0.95;;;31.90;52.00;;;;;;4992676;28;20017;-76
2022/07/09 11:25:41;;;;;;;1.10;0.65;;;32.10;46.60;;;;;;4996863;28;20026;-76
2022/07/09 11:28:07;;;;;;;0.40;0.30;;;32.50;50.00;;;;;;4992167;28;20025;-76
2022/07/09 11:30:33;;;;;;;1.42;0.80;;;33.90;47.10;;;;;;4992330;28;20101;-76
2022/07/09 11:33:00;;;;;;;1.08;0.50;;;34.40;42.80;;;;;;4980745;28;20022;-76
2022/07/09 11:35:30;;;;;;;0.73;0.70;;;34.70;43.20;;;;;;4992739;28;20029;-76
2022/07/09 11:38:02;;;;;;;0.65;0.50;;;34.50;40.50;;;;;;4992511;28;20032;-77
2022/07/09 11:40:28;;;;;;;0.85;0.50;;;33.60;40.90;;;;;;5003283;28;20037;-77
2022/07/09 11:42:54;;;;;;;0.45;0.40;;;33.00;43.50;;;;;;5002594;28;20079;-77
2022/07/09 11:45:22;;;;;;;1.33;0.55;;;31.40;46.90;;;;;;5000154;28;20477;-77
2022/07/09 11:47:48;;;;;;;0.40;0.40;;;31.00;47.20;;;;;;5003984;28;20037;-78
2022/07/09 11:50:18;;;;;;;1.05;0.65;;;31.60;44.80;;;;;;4992334;28;20030;-77
2022/07/09 11:52:50;;;;;;;0.63;0.50;;;32.20;45.70;;;;;;4992724;28;20019;-77
2022/07/09 11:55:19;;;;;;;0.70;0.57;;;31.90;44.80;;;;;;4992360;28;20033;-77
2022/07/09 11:57:54;;;;;;;0.50;0.50;;;31.60;45.30;;;;;;4994967;28;20053;-78
2022/07/09 12:00:28;;;;;;;0.50;0.50;;;30.80;48.80;;;;;;4992962;28;20024;-77
2022/07/09 12:02:55;;;;;;;0.30;0.30;;;32.40;47.80;;;;;;4973150;28;20033;-77
2022/07/09 12:05:32;;;;;;;0.55;0.55;;;34.60;43.80;;;;;;4989765;28;20447;-77
2022/07/09 12:08:01;;;;;;;1.10;0.73;;;34.80;40.40;;;;;;4979199;28;20023;-78
2022/07/09 12:10:30;;;;;;;0.60;0.50;;;34.10;41.10;;;;;;5007245;22;20054;-76
2022/07/09 12:12:57;;;;;;;0.52;0.52;;;33.70;40.40;;;;;;5007287;28;20377;-73
2022/07/09 12:15:23;;;;;;;0.80;0.50;;;32.60;41.30;;;;;;5011307;28;20526;-73
2022/07/09 12:17:57;;;;;;;0.60;0.60;;;32.40;43.30;;;;;;5007537;28;20114;-73
2022/07/09 12:20:24;;;;;;;0.55;0.55;;;33.70;43.40;;;;;;5006935;28;20025;-73
2022/07/09 12:22:50;;;;;;;1.15;0.60;;;34.90;41.30;;;;;;4991914;28;20027;-73
2022/07/09 12:25:17;;;;;;;1.60;0.40;;;36.70;40.40;;;;;;4990701;28;20014;-73
2022/07/09 12:27:43;;;;;;;2.50;0.50;;;38.10;38.20;;;;;;4991313;28;20022;-73
2022/07/09 12:30:09;;;;;;;1.67;0.50;;;39.40;35.50;;;;;;4991461;28;20375;-73
2022/07/09 12:32:35;;;;;;;2.13;0.70;;;39.70;34.90;;;;;;4991440;28;20027;-73
2022/07/09 12:35:01;;;;;;;1.27;0.55;;;39.20;35.10;;;;;;4991397;28;20022;-73
2022/07/09 12:37:27;;;;;;;0.90;0.70;;;39.90;36.30;;;;;;4991385;28;20343;-73
2022/07/09 12:39:53;;;;;;;0.75;0.40;;;40.30;34.70;;;;;;4991575;28;20022;-73
2022/07/09 12:42:20;;;;;;;2.85;0.60;;;38.50;33.50;;;;;;4990270;28;20525;-73
2022/07/09 12:44:46;;;;;;;0.80;0.40;;;36.90;35.70;;;;;;4991286;28;20030;-73
2022/07/09 12:47:12;;;;;;;0.52;0.52;;;36.70;39.80;;;;;;4992917;28;20516;-73
2022/07/09 12:49:38;;;;;;;0.98;0.60;;;37.80;37.30;;;;;;4995198;28;20022;-73
2022/07/09 12:52:04;;;;;;;0.47;0.47;;;39.30;32.70;;;;;;4994934;28;20097;-73
2022/07/09 12:54:30;;;;;;;0.50;0.50;;;39.80;35.60;;;;;;4995039;28;20543;-72
2022/07/09 12:56:56;;;;;;;0.50;0.50;;;40.80;32.70;;;;;;4994581;28;20022;-73
2022/07/09 12:59:22;;;;;;;0.65;0.65;;;39.90;33.00;;;;;;4995072;28;20022;-73
2022/07/09 13:01:48;;;;;;;1.35;0.50;;;40.50;32.50;;;;;;4977259;28;20399;-73
2022/07/09 13:04:14;;;;;;;1.58;0.60;;;40.00;31.80;;;;;;4994516;28;20096;-73
2022/07/09 13:06:43;;;;;;;0.80;0.60;;;38.10;31.20;;;;;;4994652;28;20026;-73
2022/07/09 13:09:10;;;;;;;0.77;0.50;;;36.90;35.00;;;;;;4994972;28;20128;-73
2022/07/09 13:11:37;;;;;;;0.55;0.50;;;37.80;33.50;;;;;;5029562;22;20090;-78
2022/07/09 13:14:03;;;;;;;0.85;0.60;;;39.90;36.40;;;;;;5014649;28;20072;-79
2022/07/09 13:16:29;;;;;;;0.57;0.50;;;41.30;31.30;;;;;;4997081;28;20022;-78
2022/07/09 13:18:55;;;;;;;0.77;0.60;;;42.40;29.50;;;;;;5014596;28;20029;-78
2022/07/09 13:21:22;;;;;;;1.30;0.63;;;42.00;29.60;;;;;;5014478;28;20096;-78
2022/07/09 13:23:48;;;;;;;2.28;0.50;;;42.80;29.20;;;;;;5013618;28;20022;-78
2022/07/09 13:26:14;;;;;;;1.10;0.50;;;42.70;31.00;;;;;;5013704;28;20018;-78
2022/07/09 13:28:40;;;;;;;0.60;0.60;;;43.00;31.30;;;;;;5013371;28;20494;-78
2022/07/09 13:31:06;;;;;;;0.80;0.63;;;40.60;29.30;;;;;;5013136;28;20104;-78
2022/07/09 13:33:33;;;;;;;0.63;0.63;;;41.30;29.40;;;;;;4996010;28;20014;-78
2022/07/09 13:36:00;;;;;;;0.98;0.60;;;42.10;30.00;;;;;;5013354;28;20080;-78
2022/07/09 13:38:27;;;;;;;0.40;0.40;;;41.50;28.20;;;;;;5012765;28;20076;-79
2022/07/09 13:40:53;;;;;;;0.57;0.50;;;42.30;29.60;;;;;;5012113;28;20022;-79